Time;durP1;ratioP1;P1;durP2;ratioP2;P2;SDS_P1;SDS_P2;PMS_P1;PMS_P2;Temp;Humidity;BMP_temperature;BMP_pressure;BME280_temperature;BME280_humidity;BME280_pressure;Samples;Min_cycle;Max_cycle;Signal;HPM_P1;HPM_P2
2022/06/15 00:02:16;;;;;;;7.60;5.40;;;10.30;99.90;;;;;;4932094;29;20054;-77
2022/06/15 00:04:44;;;;;;;7.68;6.47;;;10.30;99.90;;;;;;4921359;29;20043;-77
2022/06/15 00:07:13;;;;;;;11.35;6.60;;;10.30;99.90;;;;;;4931419;29;20502;-77
2022/06/15 00:09:43;;;;;;;7.65;5.82;;;10.30;99.90;;;;;;4921758;29;20068;-77
2022/06/15 00:12:15;;;;;;;8.88;5.97;;;10.20;99.90;;;;;;4929064;29;20488;-79
2022/06/15 00:14:44;;;;;;;7.45;5.97;;;10.30;99.90;;;;;;4933374;29;20037;-79
2022/06/15 00:17:11;;;;;;;8.27;5.80;;;10.20;99.90;;;;;;4938915;29;20047;-76
2022/06/15 00:19:40;;;;;;;6.70;5.60;;;10.30;99.90;;;;;;4933038;29;20137;-77
2022/06/15 00:22:18;;;;;;;10.40;6.88;;;10.20;99.90;;;;;;4919390;29;20048;-77
2022/06/15 00:24:44;;;;;;;8.98;6.13;;;10.30;99.90;;;;;;4924425;28;20524;-77
2022/06/15 00:27:10;;;;;;;7.05;6.10;;;10.10;99.90;;;;;;4951532;28;20047;-77
2022/06/15 00:29:37;;;;;;;7.97;5.60;;;10.10;99.90;;;;;;4936813;29;20043;-77
2022/06/15 00:32:05;;;;;;;8.48;6.70;;;10.10;99.90;;;;;;4916761;29;20046;-77
2022/06/15 00:34:31;;;;;;;9.23;6.30;;;10.00;99.90;;;;;;4929194;29;20090;-77
2022/06/15 00:36:57;;;;;;;8.27;6.80;;;10.00;99.90;;;;;;4918555;28;20063;-77
2022/06/15 00:39:29;;;;;;;10.13;6.57;;;10.00;99.90;;;;;;4932755;29;20065;-77
2022/06/15 00:41:59;;;;;;;9.00;7.18;;;10.00;99.90;;;;;;4918317;29;20047;-77
2022/06/15 00:44:33;;;;;;;8.75;6.18;;;10.00;99.90;;;;;;4918266;29;20478;-77
2022/06/15 00:47:08;;;;;;;8.40;6.35;;;10.00;99.90;;;;;;4932054;29;20704;-78
2022/06/15 00:50:01;;;;;;;8.20;6.28;;;10.00;99.90;;;;;;4958378;28;20040;-79
2022/06/15 00:52:43;;;;;;;8.13;6.65;;;9.90;99.90;;;;;;4953481;28;20082;-79
2022/06/15 00:55:18;;;;;;;8.85;6.75;;;9.90;99.90;;;;;;4925897;29;20118;-79
2022/06/15 00:57:50;;;;;;;8.65;6.43;;;9.90;99.90;;;;;;4928828;28;20050;-77
2022/06/15 01:00:16;;;;;;;8.45;6.65;;;9.90;99.90;;;;;;4930294;29;20544;-79
2022/06/15 01:02:43;;;;;;;8.35;6.65;;;9.90;99.90;;;;;;4946201;28;20043;-77
2022/06/15 01:05:18;;;;;;;9.95;6.65;;;9.80;99.90;;;;;;4950576;28;20095;-77
2022/06/15 01:08:09;;;;;;;9.05;6.20;;;9.80;99.90;;;;;;4928433;29;20043;-79
2022/06/15 01:11:05;;;;;;;8.48;6.00;;;9.70;99.90;;;;;;4926695;28;20138;-77
2022/06/15 01:13:54;;;;;;;9.63;6.88;;;9.70;99.90;;;;;;4936727;29;20430;-77
2022/06/15 01:16:30;;;;;;;9.50;6.50;;;9.70;99.90;;;;;;4923449;29;20053;-77
2022/06/15 01:19:20;;;;;;;8.57;6.72;;;9.60;99.90;;;;;;4932552;28;20075;-77
2022/06/15 01:21:57;;;;;;;7.63;6.55;;;9.60;99.90;;;;;;4925654;29;20524;-79
2022/06/15 01:24:56;;;;;;;9.70;7.28;;;9.60;99.90;;;;;;4931920;29;20085;-80
2022/06/15 01:28:13;;;;;;;8.93;6.93;;;9.60;99.90;;;;;;4920325;29;20126;-79
2022/06/15 01:31:10;;;;;;;10.15;7.20;;;9.50;99.90;;;;;;4921059;29;20052;-77
2022/06/15 01:33:59;;;;;;;10.50;6.40;;;9.50;99.90;;;;;;4900513;29;20140;-79
2022/06/15 01:36:35;;;;;;;9.88;6.60;;;9.40;99.90;;;;;;4919167;29;20129;-77
2022/06/15 01:39:42;;;;;;;8.07;7.13;;;9.40;99.90;;;;;;4923947;29;20071;-77
2022/06/15 01:42:25;;;;;;;11.60;7.32;;;9.40;99.90;;;;;;4950322;28;20102;-79
2022/06/15 01:44:59;;;;;;;8.48;7.63;;;9.40;99.90;;;;;;4919055;29;20055;-80
2022/06/15 01:47:36;;;;;;;9.13;6.75;;;9.40;99.90;;;;;;4940494;29;20107;-79
2022/06/15 01:50:17;;;;;;;9.40;6.88;;;9.30;99.90;;;;;;4938539;28;20050;-77
2022/06/15 01:52:51;;;;;;;10.40;6.95;;;9.30;99.90;;;;;;4916289;29;20051;-77
2022/06/15 01:55:49;;;;;;;8.35;6.80;;;9.30;99.90;;;;;;4924041;29;20186;-77
2022/06/15 01:58:21;;;;;;;8.55;6.75;;;9.30;99.90;;;;;;4951282;28;20066;-79
2022/06/15 02:01:03;;;;;;;7.18;6.43;;;9.20;99.90;;;;;;4928332;29;20394;-80
2022/06/15 02:03:50;;;;;;;7.70;6.65;;;9.20;99.90;;;;;;4944101;29;20054;-79
2022/06/15 02:06:24;;;;;;;10.43;6.47;;;9.20;99.90;;;;;;4932766;29;20043;-80
2022/06/15 02:09:20;;;;;;;8.50;6.38;;;9.20;99.90;;;;;;4943749;28;20126;-80
2022/06/15 02:11:53;;;;;;;7.22;6.30;;;9.00;99.90;;;;;;4952125;29;20098;-80
2022/06/15 02:14:28;;;;;;;8.15;6.00;;;9.10;99.90;;;;;;4928095;29;20118;-80
2022/06/15 02:17:09;;;;;;;8.30;6.70;;;9.10;99.90;;;;;;4930409;28;20039;-80
2022/06/15 02:19:43;;;;;;;8.60;7.13;;;9.10;99.90;;;;;;4946069;28;20405;-80
2022/06/15 02:22:17;;;;;;;8.20;6.75;;;9.00;99.90;;;;;;4958966;28;20071;-80
2022/06/15 02:25:03;;;;;;;10.45;7.55;;;8.90;99.90;;;;;;4938224;29;20085;-80
2022/06/15 02:27:40;;;;;;;10.43;7.38;;;8.90;99.90;;;;;;4946534;28;20042;-80
2022/06/15 02:30:20;;;;;;;7.65;6.63;;;8.90;99.90;;;;;;4945372;29;20048;-80
2022/06/15 02:33:23;;;;;;;9.70;7.40;;;8.90;99.90;;;;;;4943768;29;20035;-80
2022/06/15 02:35:50;;;;;;;8.93;7.10;;;8.90;99.90;;;;;;4929448;29;21524;-79
2022/06/15 02:38:29;;;;;;;9.40;7.00;;;8.90;99.90;;;;;;4930799;28;20046;-80
2022/06/15 02:40:56;;;;;;;9.48;8.02;;;8.90;99.90;;;;;;4930786;29;20494;-80
2022/06/15 02:43:31;;;;;;;9.57;7.38;;;8.90;99.90;;;;;;4943906;29;20043;-79
2022/06/15 02:46:04;;;;;;;9.52;7.20;;;8.90;99.90;;;;;;4920316;29;20090;-77
2022/06/15 02:48:34;;;;;;;9.30;7.53;;;8.90;99.90;;;;;;4928234;28;20055;-77
2022/06/15 02:52:07;;;;;;;10.07;8.07;;;8.80;99.90;;;;;;4922142;29;20514;-77
2022/06/15 02:54:48;;;;;;;10.45;7.93;;;8.90;99.90;;;;;;4869036;29;20390;-77
2022/06/15 02:57:26;;;;;;;10.23;7.00;;;8.90;99.90;;;;;;4849742;29;20056;-77
2022/06/15 03:00:00;;;;;;;9.88;8.18;;;9.00;99.90;;;;;;4909053;29;20040;-78
2022/06/15 03:02:29;;;;;;;9.43;7.55;;;8.90;99.90;;;;;;4897866;29;20116;-78
2022/06/15 03:04:58;;;;;;;7.93;6.87;;;8.90;99.90;;;;;;4929646;28;20498;-78
2022/06/15 03:07:33;;;;;;;9.48;6.88;;;9.00;99.90;;;;;;4945472;28;20298;-78
2022/06/15 03:10:14;;;;;;;11.52;7.15;;;8.90;99.90;;;;;;4972490;23;20046;-85
2022/06/15 03:12:40;;;;;;;10.40;6.90;;;8.90;99.90;;;;;;4942066;28;20042;-85
2022/06/15 03:15:06;;;;;;;9.63;8.05;;;8.80;99.90;;;;;;4941995;28;20416;-85
2022/06/15 03:17:32;;;;;;;8.68;6.22;;;8.80;99.90;;;;;;4926821;29;20031;-85
2022/06/15 03:19:57;;;;;;;8.80;6.95;;;8.80;99.90;;;;;;4933051;29;20039;-84
2022/06/15 03:22:23;;;;;;;7.55;6.70;;;8.70;99.90;;;;;;4913891;29;20035;-85
2022/06/15 03:24:48;;;;;;;8.48;6.60;;;8.70;99.90;;;;;;4906082;29;20051;-85
2022/06/15 03:27:14;;;;;;;7.95;6.95;;;8.70;99.90;;;;;;4929193;29;20066;-85
2022/06/15 03:29:42;;;;;;;9.40;7.15;;;8.70;99.90;;;;;;4922429;29;20046;-85
2022/06/15 03:32:07;;;;;;;8.63;7.50;;;8.60;99.90;;;;;;4922446;29;20050;-84
2022/06/15 03:34:33;;;;;;;9.73;7.70;;;8.70;99.90;;;;;;4938342;29;20032;-85
2022/06/15 03:36:59;;;;;;;10.40;8.20;;;8.60;99.90;;;;;;4914456;29;20171;-86
2022/06/15 03:39:24;;;;;;;10.90;7.70;;;8.60;99.90;;;;;;4908973;29;20498;-85
2022/06/15 03:41:50;;;;;;;7.85;6.75;;;8.60;99.90;;;;;;4896930;29;20036;-85
2022/06/15 03:44:15;;;;;;;8.23;6.90;;;8.60;99.90;;;;;;4903712;29;20454;-85
2022/06/15 03:46:41;;;;;;;7.75;6.63;;;8.60;99.90;;;;;;4918504;29;20035;-85
2022/06/15 03:49:06;;;;;;;8.23;6.93;;;8.60;99.90;;;;;;4902363;29;20403;-85
2022/06/15 03:51:34;;;;;;;8.02;6.60;;;8.60;99.90;;;;;;4903395;29;20032;-85
2022/06/15 03:53:59;;;;;;;8.50;7.57;;;8.60;99.90;;;;;;4911991;29;20079;-85
2022/06/15 03:56:46;;;;;;;8.45;7.55;;;8.60;99.90;;;;;;4916567;29;20569;-85
2022/06/15 03:59:13;;;;;;;9.00;7.72;;;8.70;99.90;;;;;;4902944;29;20050;-84
2022/06/15 04:01:39;;;;;;;11.57;7.65;;;8.80;99.90;;;;;;4903115;29;20066;-85
2022/06/15 04:04:05;;;;;;;12.05;7.53;;;8.70;99.90;;;;;;4903120;29;20035;-85
2022/06/15 04:06:31;;;;;;;9.30;8.00;;;8.70;99.90;;;;;;4901928;29;20107;-85
2022/06/15 04:08:56;;;;;;;10.90;7.97;;;8.80;99.90;;;;;;4910272;29;20062;-86
2022/06/15 04:14:06;;;;;;;9.43;7.07;;;8.90;99.90;;;;;;4918865;29;20078;-85
2022/06/15 04:16:34;;;;;;;8.63;7.20;;;8.90;99.90;;;;;;4902686;29;20577;-85
2022/06/15 04:19:02;;;;;;;9.38;6.80;;;8.90;99.90;;;;;;4902699;29;20397;-85
2022/06/15 04:21:28;;;;;;;9.55;7.25;;;9.00;99.90;;;;;;4918700;29;20079;-85
2022/06/15 04:23:54;;;;;;;10.32;7.68;;;9.10;99.90;;;;;;4905642;29;20070;-85
2022/06/15 04:26:20;;;;;;;11.68;8.50;;;9.20;99.90;;;;;;4901769;29;20522;-85
2022/06/15 04:28:46;;;;;;;10.68;7.90;;;9.40;99.90;;;;;;4902957;29;20071;-85
2022/06/15 04:31:12;;;;;;;9.40;8.20;;;9.60;99.90;;;;;;4918837;29;20035;-85
2022/06/15 04:33:38;;;;;;;9.27;7.50;;;9.90;99.90;;;;;;4901021;29;20134;-85
2022/06/15 04:36:04;;;;;;;12.05;7.97;;;10.30;99.90;;;;;;4910107;29;20099;-85
2022/06/15 04:38:30;;;;;;;9.48;7.65;;;10.60;99.90;;;;;;4902263;29;20044;-85
2022/06/15 04:40:55;;;;;;;9.10;7.70;;;10.80;99.90;;;;;;4902366;29;20058;-85
2022/06/15 04:43:21;;;;;;;9.50;7.05;;;11.00;99.90;;;;;;4902585;29;20040;-85
2022/06/15 04:45:47;;;;;;;8.40;6.75;;;11.30;99.90;;;;;;4902172;29;20054;-86
2022/06/15 04:48:14;;;;;;;8.95;7.05;;;11.70;99.90;;;;;;4901108;29;20147;-85
2022/06/15 04:50:40;;;;;;;7.63;6.18;;;12.00;99.90;;;;;;4917545;29;20459;-85
2022/06/15 04:53:05;;;;;;;8.88;6.47;;;12.30;99.90;;;;;;4918003;29;20046;-85
2022/06/15 04:55:33;;;;;;;7.63;5.60;;;12.60;99.90;;;;;;4901777;29;20120;-85
2022/06/15 04:57:59;;;;;;;7.47;5.80;;;12.80;99.90;;;;;;4902061;29;20083;-85
2022/06/15 05:00:28;;;;;;;8.57;6.60;;;12.90;99.90;;;;;;4916789;29;20044;-85
2022/06/15 05:02:54;;;;;;;8.10;5.82;;;13.10;99.90;;;;;;4909638;29;20508;-85
2022/06/15 05:05:20;;;;;;;7.85;5.65;;;13.30;99.90;;;;;;4925551;29;20497;-84
2022/06/15 05:07:46;;;;;;;8.75;6.05;;;13.60;99.90;;;;;;4901187;29;20040;-85
2022/06/15 05:10:21;;;;;;;7.00;5.38;;;13.90;99.90;;;;;;4901751;29;20034;-85
2022/06/15 05:12:47;;;;;;;7.70;5.65;;;14.30;99.90;;;;;;4916937;29;20122;-85
2022/06/15 05:15:13;;;;;;;7.18;5.32;;;14.60;99.90;;;;;;4923544;29;20122;-85
2022/06/15 05:17:44;;;;;;;9.60;5.72;;;15.00;99.90;;;;;;4916458;29;20051;-84
2022/06/15 05:20:13;;;;;;;6.97;5.00;;;15.30;99.90;;;;;;4924575;29;20055;-85
2022/06/15 05:22:39;;;;;;;8.32;4.90;;;15.40;99.90;;;;;;4917730;29;20055;-84
2022/06/15 05:25:07;;;;;;;6.78;4.60;;;15.50;99.90;;;;;;4899794;29;20052;-85
2022/06/15 05:27:34;;;;;;;6.35;5.05;;;15.50;99.90;;;;;;4906323;29;20049;-85
2022/06/15 05:30:00;;;;;;;8.02;5.07;;;15.60;99.90;;;;;;4903994;29;20032;-84
2022/06/15 05:32:26;;;;;;;8.93;4.85;;;15.50;99.90;;;;;;4913051;29;20446;-85
2022/06/15 05:34:55;;;;;;;6.97;4.63;;;15.50;99.90;;;;;;4932155;29;20046;-84
2022/06/15 05:37:23;;;;;;;6.97;4.50;;;15.60;99.90;;;;;;4901572;29;20561;-84
2022/06/15 05:39:51;;;;;;;7.13;4.30;;;15.70;99.90;;;;;;4901856;29;20047;-85
2022/06/15 05:42:16;;;;;;;6.22;4.55;;;15.80;99.90;;;;;;4900170;29;20487;-85
2022/06/15 05:44:48;;;;;;;5.88;4.28;;;15.90;99.90;;;;;;4898276;29;20554;-85
2022/06/15 05:47:14;;;;;;;5.22;4.15;;;16.10;99.90;;;;;;4911524;29;20043;-84
2022/06/15 05:49:40;;;;;;;6.30;4.20;;;16.10;99.90;;;;;;4905981;29;20040;-85
2022/06/15 05:52:06;;;;;;;5.82;4.18;;;16.20;99.90;;;;;;4901629;29;20075;-85
2022/06/15 05:54:32;;;;;;;5.28;4.22;;;16.50;99.90;;;;;;4905409;29;20036;-85
2022/06/15 05:56:58;;;;;;;5.10;4.10;;;16.60;99.90;;;;;;4919564;29;20432;-84
2022/06/15 05:59:23;;;;;;;6.80;4.47;;;16.70;99.90;;;;;;4904579;29;20118;-85
2022/06/15 06:01:49;;;;;;;6.45;4.05;;;16.70;99.90;;;;;;4904510;29;20048;-82
2022/06/15 06:04:16;;;;;;;5.18;3.83;;;16.70;99.90;;;;;;4917802;29;20047;-83
2022/06/15 06:06:42;;;;;;;5.70;4.10;;;16.60;99.90;;;;;;4914625;29;20075;-82
2022/06/15 06:09:09;;;;;;;6.22;3.58;;;16.60;99.90;;;;;;4904803;29;20093;-83
2022/06/15 06:11:38;;;;;;;6.38;4.00;;;16.40;99.90;;;;;;4904485;29;20035;-82
2022/06/15 06:14:04;;;;;;;7.72;4.35;;;16.30;99.90;;;;;;4919659;29;20095;-82
2022/06/15 06:16:29;;;;;;;7.43;4.07;;;16.20;99.90;;;;;;4946810;29;20035;-83
2022/06/15 06:18:55;;;;;;;6.40;4.05;;;16.10;99.90;;;;;;4920696;29;20036;-83
2022/06/15 06:21:21;;;;;;;5.03;3.65;;;16.00;99.90;;;;;;4905171;29;20090;-82
2022/06/15 06:23:47;;;;;;;5.80;4.35;;;15.90;99.90;;;;;;4904774;29;20039;-83
2022/06/15 06:26:23;;;;;;;5.95;4.10;;;15.80;99.90;;;;;;4904229;29;20059;-82
2022/06/15 06:28:49;;;;;;;5.88;3.95;;;15.70;99.90;;;;;;4944492;29;20055;-82
2022/06/15 06:31:14;;;;;;;7.18;4.47;;;15.70;99.90;;;;;;4923255;29;20085;-82
2022/06/15 06:33:40;;;;;;;7.05;4.32;;;15.60;99.90;;;;;;4910009;29;20043;-82
2022/06/15 06:36:40;;;;;;;6.78;4.35;;;15.60;99.90;;;;;;4905875;29;20040;-82
2022/06/15 06:39:12;;;;;;;7.03;4.38;;;15.50;99.90;;;;;;4929085;29;20565;-83
2022/06/15 06:41:38;;;;;;;8.75;4.88;;;15.60;99.90;;;;;;4909542;29;20064;-83
2022/06/15 06:44:04;;;;;;;8.80;4.47;;;15.60;99.90;;;;;;4904686;29;20071;-83
2022/06/15 06:46:32;;;;;;;6.78;4.03;;;15.60;99.90;;;;;;4920456;29;20482;-81
2022/06/15 06:48:58;;;;;;;6.65;4.13;;;15.70;99.90;;;;;;4903772;29;20051;-83
2022/06/15 06:51:24;;;;;;;8.85;4.78;;;15.80;99.90;;;;;;4904385;29;20039;-83
2022/06/15 06:53:49;;;;;;;5.90;3.85;;;15.80;99.90;;;;;;4903145;29;20042;-82
2022/06/15 06:56:15;;;;;;;6.75;4.63;;;15.80;99.90;;;;;;4918237;29;20102;-81
2022/06/15 06:58:41;;;;;;;6.18;4.43;;;15.90;99.90;;;;;;4917584;29;20040;-83
2022/06/15 07:01:06;;;;;;;7.20;4.03;;;16.00;99.90;;;;;;4926389;29;20118;-82
2022/06/15 07:03:33;;;;;;;6.82;4.68;;;16.00;99.90;;;;;;4925653;29;20114;-81
2022/06/15 07:06:00;;;;;;;7.93;4.65;;;16.00;99.90;;;;;;4920920;29;20047;-81
2022/06/15 07:08:26;;;;;;;7.30;4.13;;;16.10;99.90;;;;;;4910333;29;20111;-82
2022/06/15 07:10:52;;;;;;;6.72;4.25;;;16.20;99.90;;;;;;4904307;29;20039;-82
2022/06/15 07:13:17;;;;;;;8.00;4.45;;;16.30;99.90;;;;;;4919511;29;20048;-82
2022/06/15 07:15:43;;;;;;;6.13;4.60;;;16.30;99.90;;;;;;4919342;29;20038;-82
2022/06/15 07:18:08;;;;;;;6.72;4.28;;;16.40;99.90;;;;;;4904105;29;20043;-82
2022/06/15 07:20:34;;;;;;;6.57;4.38;;;16.50;99.90;;;;;;4920169;29;20491;-82
2022/06/15 07:23:00;;;;;;;7.88;4.30;;;16.50;99.90;;;;;;4904141;29;20078;-82
2022/06/15 07:25:25;;;;;;;5.72;3.70;;;16.60;99.90;;;;;;4903262;29;20079;-83
2022/06/15 07:27:51;;;;;;;7.50;3.88;;;16.80;99.90;;;;;;4903844;29;20043;-82
2022/06/15 07:30:21;;;;;;;6.82;3.70;;;16.80;99.90;;;;;;4903939;29;20398;-82
2022/06/15 07:32:47;;;;;;;5.97;4.38;;;17.00;99.90;;;;;;4920479;29;20131;-82
2022/06/15 07:35:38;;;;;;;7.13;4.18;;;17.10;99.90;;;;;;4904154;29;20047;-81
2022/06/15 07:38:07;;;;;;;6.20;3.83;;;17.20;99.90;;;;;;4902927;29;20161;-82
2022/06/15 07:40:33;;;;;;;7.30;4.20;;;17.60;99.90;;;;;;4903813;29;20507;-82
2022/06/15 07:42:59;;;;;;;6.03;3.33;;;18.00;99.90;;;;;;4904048;29;20040;-82
2022/06/15 07:45:26;;;;;;;5.95;3.65;;;18.50;99.90;;;;;;4903682;29;20418;-82
2022/06/15 07:50:39;;;;;;;4.50;3.10;;;19.70;99.90;;;;;;4914345;29;20403;-82
2022/06/15 07:53:08;;;;;;;5.32;3.20;;;20.50;99.90;;;;;;4903721;29;20040;-82
2022/06/15 07:55:36;;;;;;;3.38;2.45;;;21.20;99.90;;;;;;4903827;29;20042;-82
2022/06/15 07:58:02;;;;;;;4.63;2.20;;;21.70;99.90;;;;;;4917851;29;20517;-83
2022/06/15 08:00:30;;;;;;;5.10;2.70;;;22.20;99.90;;;;;;4918929;29;20140;-82
2022/06/15 08:02:57;;;;;;;3.70;2.60;;;22.60;99.90;;;;;;4917158;29;20039;-83
2022/06/15 08:05:24;;;;;;;4.80;1.63;;;22.90;99.90;;;;;;4917208;29;20118;-81
2022/06/15 08:07:50;;;;;;;4.07;1.83;;;23.10;99.90;;;;;;4901640;29;20045;-83
2022/06/15 08:10:20;;;;;;;5.10;2.15;;;23.30;99.90;;;;;;4915264;29;20051;-82
2022/06/15 08:12:47;;;;;;;2.67;1.52;;;23.50;99.90;;;;;;4906506;29;20073;-81
2022/06/15 08:15:12;;;;;;;2.92;1.58;;;23.60;99.90;;;;;;4894682;29;20047;-85
2022/06/15 08:17:45;;;;;;;3.17;1.70;;;23.90;99.90;;;;;;4913683;29;20086;-84
2022/06/15 08:20:19;;;;;;;2.80;1.33;;;24.30;97.60;;;;;;4918600;29;20059;-83
2022/06/15 08:22:48;;;;;;;3.47;1.55;;;24.60;91.20;;;;;;4918339;29;20059;-82
2022/06/15 08:25:19;;;;;;;2.75;1.50;;;24.70;90.60;;;;;;4916835;29;20053;-83
2022/06/15 08:27:45;;;;;;;2.58;1.60;;;24.50;86.90;;;;;;4916735;29;20051;-83
2022/06/15 08:30:13;;;;;;;3.30;1.40;;;24.60;85.00;;;;;;4918173;29;20046;-83
2022/06/15 08:32:39;;;;;;;2.30;1.23;;;24.90;80.10;;;;;;4905956;29;20051;-82
2022/06/15 08:35:06;;;;;;;2.05;1.23;;;25.20;76.70;;;;;;4899441;29;20075;-82
2022/06/15 08:37:32;;;;;;;3.17;1.45;;;25.50;74.80;;;;;;4916885;29;20042;-83
2022/06/15 08:39:58;;;;;;;3.90;1.23;;;25.60;73.60;;;;;;4903044;29;20039;-82
2022/06/15 08:42:48;;;;;;;4.85;1.52;;;25.50;72.40;;;;;;4910702;29;20039;-82
2022/06/15 08:45:33;;;;;;;3.22;1.00;;;25.50;68.80;;;;;;4916876;29;20054;-83
2022/06/15 08:48:25;;;;;;;2.38;1.00;;;25.60;68.90;;;;;;4910200;29;20087;-81
2022/06/15 08:51:07;;;;;;;2.80;1.13;;;25.90;67.00;;;;;;4898889;29;20557;-82
2022/06/15 08:53:42;;;;;;;2.10;1.10;;;25.70;66.20;;;;;;4926798;29;20072;-82
2022/06/15 08:56:48;;;;;;;1.90;0.90;;;25.60;62.40;;;;;;4910031;29;20091;-83
2022/06/15 08:59:30;;;;;;;2.58;1.20;;;25.70;65.90;;;;;;4916966;29;20043;-82
2022/06/15 09:02:14;;;;;;;2.78;1.20;;;26.00;63.90;;;;;;4902408;29;20506;-82
2022/06/15 09:05:08;;;;;;;1.92;1.10;;;26.20;64.30;;;;;;4917914;29;20043;-82
2022/06/15 09:07:33;;;;;;;2.95;1.20;;;26.30;60.20;;;;;;4906433;29;20039;-82
2022/06/15 09:10:46;;;;;;;3.30;1.20;;;26.10;59.40;;;;;;4954425;23;20047;-80
2022/06/15 09:13:45;;;;;;;2.60;1.00;;;25.60;58.70;;;;;;4903683;29;20047;-79
2022/06/15 09:16:26;;;;;;;3.60;1.35;;;25.40;61.30;;;;;;4898747;29;20103;-79
2022/06/15 09:19:24;;;;;;;3.65;1.17;;;25.40;61.70;;;;;;4900634;29;20506;-79
2022/06/15 09:22:19;;;;;;;2.78;1.40;;;25.50;61.20;;;;;;4886727;29;20043;-81
2022/06/15 09:24:59;;;;;;;2.33;1.10;;;25.70;59.30;;;;;;4883514;29;20495;-81
2022/06/15 09:27:39;;;;;;;2.28;1.33;;;25.90;59.30;;;;;;4886544;29;20044;-79
2022/06/15 09:30:31;;;;;;;4.95;1.33;;;26.10;59.80;;;;;;4893768;29;20429;-79
2022/06/15 09:33:34;;;;;;;2.63;1.10;;;26.50;61.90;;;;;;4903671;29;20044;-79
2022/06/15 09:36:08;;;;;;;1.73;1.02;;;26.90;59.30;;;;;;4892323;29;20111;-80
2022/06/15 09:38:38;;;;;;;2.58;1.13;;;27.30;62.20;;;;;;4874781;29;20040;-80
2022/06/15 09:41:36;;;;;;;2.05;0.88;;;27.50;58.00;;;;;;4870100;29;20184;-80
2022/06/15 09:44:29;;;;;;;3.47;1.25;;;27.50;56.70;;;;;;4918387;29;20139;-79
2022/06/15 09:50:43;;;;;;;2.20;1.30;;;27.60;55.80;;;;;;4895633;29;20054;-80
2022/06/15 09:53:35;;;;;;;2.05;1.20;;;27.70;54.80;;;;;;4917180;29;20054;-80
2022/06/15 09:56:17;;;;;;;2.50;1.17;;;27.70;54.40;;;;;;4907376;29;20063;-80
2022/06/15 09:58:55;;;;;;;1.90;1.08;;;27.90;55.60;;;;;;4905543;29;20042;-82
2022/06/15 10:01:33;;;;;;;3.17;1.38;;;28.10;54.90;;;;;;4900335;29;20040;-81
2022/06/15 10:04:07;;;;;;;2.33;1.30;;;28.20;52.90;;;;;;4892114;29;20039;-80
2022/06/15 10:06:57;;;;;;;2.00;1.23;;;28.20;54.10;;;;;;4904717;29;20143;-80
2022/06/15 10:09:34;;;;;;;1.88;1.00;;;28.20;54.00;;;;;;4896339;29;20056;-79
2022/06/15 10:15:25;;;;;;;4.10;1.30;;;28.40;52.90;;;;;;4910015;29;20039;-80
2022/06/15 10:18:00;;;;;;;2.08;1.05;;;28.30;52.70;;;;;;4889959;29;20063;-81
2022/06/15 10:20:39;;;;;;;2.08;1.00;;;28.20;51.50;;;;;;4895023;29;20122;-80
2022/06/15 10:23:48;;;;;;;2.45;1.20;;;28.20;52.30;;;;;;4900347;29;20542;-80
2022/06/15 10:26:46;;;;;;;1.85;1.05;;;28.30;53.70;;;;;;4900536;29;20039;-80
2022/06/15 10:29:35;;;;;;;1.88;1.15;;;28.40;53.60;;;;;;4911697;29;20047;-79
2022/06/15 10:32:10;;;;;;;2.00;1.10;;;28.70;53.00;;;;;;4896217;29;20083;-79
2022/06/15 10:35:09;;;;;;;2.55;1.00;;;28.90;52.80;;;;;;4920322;29;20044;-80
2022/06/15 10:37:57;;;;;;;2.95;1.30;;;29.20;52.70;;;;;;4888458;29;20048;-80
2022/06/15 10:40:44;;;;;;;2.22;1.10;;;29.30;51.60;;;;;;4885171;29;20075;-79
2022/06/15 10:43:23;;;;;;;1.52;0.93;;;29.40;51.50;;;;;;4904797;29;20039;-80
2022/06/15 10:46:47;;;;;;;2.72;1.15;;;29.50;52.30;;;;;;4925293;29;20044;-80
2022/06/15 10:49:29;;;;;;;2.83;1.33;;;29.80;50.10;;;;;;4894442;29;20057;-79
2022/06/15 10:52:35;;;;;;;2.42;1.23;;;29.80;49.70;;;;;;4915684;29;20048;-79
2022/06/15 11:04:35;;;;;;;4.25;1.23;;;29.70;50.90;;;;;;4913434;29;20048;-79
2022/06/15 11:11:10;;;;;;;1.90;1.10;;;29.80;50.80;;;;;;4905298;29;20044;-79
2022/06/15 11:14:43;;;;;;;3.42;1.45;;;29.80;50.40;;;;;;4883517;29;20399;-79
2022/06/15 11:20:41;;;;;;;2.22;1.20;;;29.40;50.50;;;;;;4886627;29;20084;-80
2022/06/15 11:23:44;;;;;;;1.83;1.25;;;29.30;50.80;;;;;;4873361;29;20039;-80
2022/06/15 11:29:22;;;;;;;;;;;29.20;51.00;;;;;;4914409;29;20098;-80
2022/06/15 11:31:56;;;;;;;2.47;1.20;;;29.10;52.10;;;;;;4916371;29;20298;-79
2022/06/15 11:34:30;;;;;;;2.40;1.15;;;29.20;51.10;;;;;;4877247;29;20052;-79
2022/06/15 11:37:39;;;;;;;4.05;1.10;;;29.30;50.10;;;;;;4898538;29;20077;-79
2022/06/15 11:40:36;;;;;;;1.83;1.23;;;29.30;49.70;;;;;;4901808;29;20510;-79
2022/06/15 11:43:22;;;;;;;2.95;1.40;;;28.90;49.40;;;;;;4883070;29;20040;-79
2022/06/15 11:46:12;;;;;;;3.70;1.55;;;28.30;50.80;;;;;;4899596;29;20051;-82
2022/06/15 11:49:23;;;;;;;2.83;1.40;;;28.10;50.20;;;;;;4903863;29;20040;-81
2022/06/15 11:52:28;;;;;;;2.75;1.30;;;28.20;52.30;;;;;;4881511;29;20078;-80
2022/06/15 11:55:25;;;;;;;3.03;1.30;;;28.60;53.40;;;;;;4883973;29;20127;-80
2022/06/15 11:58:09;;;;;;;1.52;1.10;;;28.90;52.00;;;;;;4889045;29;20277;-80
2022/06/15 12:00:57;;;;;;;2.30;1.00;;;29.00;50.00;;;;;;4891931;29;20036;-80
2022/06/15 12:03:55;;;;;;;2.72;1.40;;;29.20;54.10;;;;;;4884990;29;20036;-79
2022/06/15 12:06:39;;;;;;;2.50;1.20;;;29.40;52.50;;;;;;4906015;29;20106;-79
2022/06/15 12:09:39;;;;;;;2.88;1.52;;;29.50;52.40;;;;;;4898578;29;20044;-79
2022/06/15 12:12:38;;;;;;;2.35;1.20;;;29.70;51.00;;;;;;4904490;29;20583;-79
2022/06/15 12:15:26;;;;;;;;;;;29.60;50.50;;;;;;4904148;29;20051;-80
2022/06/15 12:18:27;;;;;;;2.13;1.25;;;29.50;51.30;;;;;;4886740;29;20378;-79
2022/06/15 12:21:20;;;;;;;2.65;1.17;;;29.40;48.80;;;;;;4877070;29;20048;-79
2022/06/15 12:24:04;;;;;;;3.10;1.48;;;29.20;49.60;;;;;;4883863;29;20107;-79
2022/06/15 12:27:12;;;;;;;1.85;1.10;;;29.10;49.60;;;;;;4893905;29;20047;-79
2022/06/15 12:29:55;;;;;;;2.58;1.48;;;29.10;50.50;;;;;;4831873;29;20151;-79
2022/06/15 12:32:41;;;;;;;1.70;1.17;;;29.30;51.40;;;;;;4881675;29;20104;-79
2022/06/15 12:35:38;;;;;;;2.80;1.10;;;29.60;50.30;;;;;;4903549;29;20036;-80
2022/06/15 12:38:44;;;;;;;3.38;1.27;;;29.70;51.60;;;;;;4900728;29;20059;-81
2022/06/15 12:44:19;;;;;;;2.45;1.40;;;29.40;49.10;;;;;;4927588;29;20183;-78
2022/06/15 12:46:49;;;;;;;2.15;1.30;;;29.00;50.30;;;;;;4894714;29;20050;-79
2022/06/15 12:49:36;;;;;;;2.47;1.30;;;28.90;50.90;;;;;;4898319;29;20058;-79
2022/06/15 12:52:11;;;;;;;3.22;1.30;;;29.10;49.80;;;;;;4885444;29;20579;-79
2022/06/15 12:55:22;;;;;;;2.92;1.48;;;29.20;50.00;;;;;;4889367;29;20043;-79
2022/06/15 12:58:29;;;;;;;2.95;1.30;;;29.40;48.80;;;;;;4854884;29;20053;-78
2022/06/15 13:01:13;;;;;;;3.63;1.20;;;29.30;49.60;;;;;;4870055;29;20049;-79
2022/06/15 13:03:51;;;;;;;3.40;1.27;;;29.20;49.70;;;;;;4879572;29;20090;-79
2022/06/15 13:06:37;;;;;;;3.50;1.40;;;28.90;50.80;;;;;;4878926;29;20040;-79
2022/06/15 13:09:26;;;;;;;2.33;1.30;;;28.80;51.80;;;;;;4888609;29;20036;-79
2022/06/15 13:12:33;;;;;;;1.75;1.00;;;28.90;50.20;;;;;;4891504;29;20107;-79
2022/06/15 13:15:15;;;;;;;2.72;1.38;;;28.90;51.40;;;;;;4887841;29;20126;-78
2022/06/15 13:18:48;;;;;;;2.25;1.23;;;28.80;51.10;;;;;;4902364;29;20223;-80
2022/06/15 13:22:17;;;;;;;2.13;1.17;;;28.90;54.10;;;;;;4903836;29;20111;-80
2022/06/15 13:25:30;;;;;;;3.30;1.58;;;29.00;54.80;;;;;;4922479;29;20398;-79
2022/06/15 13:28:11;;;;;;;1.75;1.27;;;29.20;52.30;;;;;;4902523;29;20044;-79
2022/06/15 13:31:03;;;;;;;2.20;1.38;;;29.10;51.10;;;;;;4890899;29;20458;-79
2022/06/15 13:34:09;;;;;;;1.83;1.20;;;29.20;52.30;;;;;;4896565;29;20044;-79
2022/06/15 13:37:30;;;;;;;3.65;1.25;;;29.20;52.80;;;;;;4877432;29;20088;-79
2022/06/15 13:40:25;;;;;;;2.88;1.15;;;29.20;51.70;;;;;;4897012;29;20044;-79
2022/06/15 13:43:12;;;;;;;2.83;1.38;;;29.40;50.50;;;;;;4891086;29;20040;-78
2022/06/15 13:45:50;;;;;;;2.45;1.20;;;29.40;49.80;;;;;;4903229;29;20051;-79
2022/06/15 13:48:31;;;;;;;2.03;1.10;;;29.30;50.00;;;;;;4883639;29;20044;-79
2022/06/15 13:51:40;;;;;;;1.63;1.00;;;29.20;51.20;;;;;;4893761;29;20487;-79
2022/06/15 13:54:34;;;;;;;2.83;1.23;;;29.20;54.70;;;;;;4905015;29;20055;-79
2022/06/15 13:57:39;;;;;;;1.77;1.20;;;29.30;51.30;;;;;;4903902;29;20106;-78
2022/06/15 14:00:30;;;;;;;2.58;1.10;;;29.20;51.70;;;;;;4905265;29;20040;-80
2022/06/15 14:03:26;;;;;;;2.97;1.20;;;29.20;51.70;;;;;;4887993;29;20127;-80
2022/06/15 14:06:39;;;;;;;1.50;1.33;;;29.30;52.80;;;;;;4891585;29;20150;-81
2022/06/15 14:09:52;;;;;;;2.45;1.55;;;29.20;50.70;;;;;;4909667;29;20069;-82
2022/06/15 14:13:10;;;;;;;2.45;1.15;;;29.00;52.00;;;;;;4811701;29;20532;-82
2022/06/15 14:16:12;;;;;;;3.03;1.00;;;29.00;52.30;;;;;;4889942;29;20048;-82
2022/06/15 14:18:53;;;;;;;62.13;7.85;;;29.20;53.60;;;;;;4890877;29;20518;-82
2022/06/15 14:22:16;;;;;;;4.05;1.27;;;29.20;52.90;;;;;;4872203;29;20128;-82
2022/06/15 14:29:17;;;;;;;2.60;1.50;;;29.00;51.40;;;;;;4862410;29;20636;-82